الصفحة الرئيسية
METAR-TAF:

METAR-TAF

مطار :

لاغوس, نيجيريا

مطار مورتالا محمد الدولي

دائرة عرض: 06-35N, خط طول: 003-20E, ارتفاع: 40 متر

مراقبة الطقس الحالي

تاريخ ووقت الإصدار 15 دقيقة قبل الساعة 11:00UTC
ريح 4 عقدة من الشمال
درجة الحرارة 30°درجة مئوية
الرطوبة 66%
ضغط 1014 hPa
الرؤية: 8000 متر
غيوم مفككة على ارتفاع 1300 قدم

METAR: DNMM 171100Z 35004KT 8000 BKN013 30/23 Q1014 NOSIG

زمن: 12:15 (11:15 UTC)

توقعات

تاريخ ووقت الإصدار 7ساعات و 45 دقيقة قبل الساعة 03:30UTC
التوقعات صالحة من17 الساعة 06 UTC إلى 18 الساعة 12 UTC
ريح 2 عقدةمن اتجاهات متغيرة
الرؤية: 7000 متر
غيوم متفرقة على ارتفاع 1000 قدم
مؤقت
من 17 الساعة 06 UTC إلى 17 الساعة 09 UTC
الرؤية: 3000 متر
غشاء
نظرية الاحتمالات 30%
من 17 الساعة 06 UTC إلى 17 الساعة 07 UTC
الرؤية: 1500 متر
العجاج

TAF: DNMM 170330Z 1706/1812 VRB02KT 7000 SCT010 TEMPO 1706/1709 3000 BR PROB30 1706/1707 1500 HZ

أرصاد الطقس والتوقعات من أكثر من 4000 مطار (تقارير الطقس للمطار METAR والتنبؤ بالطقس بالمطارTAF).

المحطات المتاحة هي النقط الصفراء والحمراء على الخريطة.

حرك المؤشر فوق النقطة لمعرفة اسم المحطة.

ثم انقر لمعرفة أرصاد وتوقعات الطقس.

لتغيير الخارطة: اضغط على الأزرار الخضراء مع رمز الصليب الأسود للتكبير. على الزر الأخضر مع شرطة للتصغير، أو على الأسهم الخضراء للخرائط المجاورة.


METAR-TAF: